ADDS METAR Data INFO
IDs: Format: Raw Decoded Include TAF

Data at: 2336 UTC 18 Feb 2018

KPEQ 182315Z AUTO 00000KT 10SM BKN100 26/07 A2978 RMK AO2 T02600068
KPEQ 182255Z AUTO 00000KT 10SM SCT110 26/07 A2978 RMK AO2 T02620069
KPEQ 182235Z AUTO 00000KT 10SM CLR 27/07 A2978 RMK AO2 T02660072
KPEQ 182215Z AUTO 00000KT 10SM SCT095 BKN120 26/08 A2978 RMK AO2 T02620075
KPEQ 182155Z AUTO 33003KT 10SM OVC095 26/07 A2979 RMK AO2 T02580074
KPEQ 182135Z AUTO 00000KT 10SM OVC095 25/07 A2980 RMK AO2 T02530070
KPEQ 182115Z AUTO 36005KT 10SM BKN095 OVC120 26/07 A2981 RMK AO2 T02550069
KPEQ 182055Z AUTO 12004KT 10SM BKN095 OVC120 25/07 A2982 RMK AO2 T02500065
KPEQ 182035Z AUTO 04005KT 10SM BKN095 25/06 A2983 RMK AO2 T02520062
KPEQ 182015Z AUTO 00000KT 10SM SCT095 24/06 A2985 RMK AO2 T02350057
KPEQ 181955Z AUTO 05005KT 10SM CLR 23/05 A2986 RMK AO2 T02290051
KPEQ 181935Z AUTO 00000KT 10SM CLR 22/05 A2989 RMK AO2 T02240051
KPEQ 181915Z AUTO 11004KT 10SM CLR 23/05 A2991 RMK AO2 T02250049
KPEQ 181855Z AUTO 00000KT 10SM CLR 22/04 A2993 RMK AO2 T02170041
KPEQ 181835Z AUTO 00000KT 10SM CLR 21/04 A2995 RMK AO2 T02060039
KPEQ 181815Z AUTO 00000KT 10SM CLR 19/03 A2997 RMK AO2 T01890028
KPEQ 181755Z AUTO 06003KT 10SM CLR 18/02 A2998 RMK AO2 T01800024 10180 20074
KPEQ 181735Z AUTO 11004KT 10SM CLR 16/02 A2999 RMK AO2 T01640021
KPEQ 181715Z AUTO 00000KT 10SM CLR 15/02 A3000 RMK AO2 T01540019
KPEQ 181655Z AUTO 00000KT 10SM CLR 14/02 A3001 RMK AO2 T01430017
KPEQ 181635Z AUTO 00000KT 10SM CLR 13/02 A3002 RMK AO2 T01300015
KPEQ 181615Z AUTO 00000KT 10SM CLR 12/02 A3003 RMK AO2 T01170015
KPEQ 181555Z AUTO 00000KT 10SM CLR 11/01 A3004 RMK AO2 T01080009
KPEQ 181535Z AUTO 30003KT 10SM CLR 10/01 A3004 RMK AO2 T00970005
KPEQ 181515Z AUTO 28003KT 10SM CLR 09/00 A3004 RMK AO2 T00860002
KPEQ 181455Z AUTO 30003KT 10SM CLR 08/00 A3004 RMK AO2 T00780000
KPEQ 181435Z AUTO 00000KT 10SM CLR 08/00 A3004 RMK AO2 LTG DSNT E T00780000
KPEQ 181415Z AUTO 00000KT 10SM CLR 08/00 A3004 RMK AO2 T00760000
KPEQ 181355Z AUTO 31004KT 10SM CLR 08/00 A3004 RMK AO2 T00750000
KPEQ 181335Z AUTO 30005KT 10SM CLR 08/00 A3003 RMK AO2 T00770000
KPEQ 181315Z AUTO 32007KT 10SM CLR 08/00 A3003 RMK AO2 T00800001
KPEQ 181255Z AUTO 31007KT 10SM CLR 08/00 A3003 RMK AO2 T00810001
KPEQ 181235Z AUTO 31007KT 10SM CLR 08/00 A3003 RMK AO2 T00810001
KPEQ 181215Z AUTO 31006KT 10SM CLR 08/00 A3003 RMK AO2 T00800000
KPEQ 181155Z AUTO 30005KT 10SM CLR 08/00 A3004 RMK AO2 T00840000 10126 20084
KPEQ 181135Z AUTO 32006KT 10SM CLR 09/00 A3004 RMK AO2 T00870000
KPEQ 181115Z AUTO 32005KT 10SM CLR 09/00 A3004 RMK AO2 T00910000
KPEQ 181055Z AUTO 35004KT 10SM CLR 09/00 A3004 RMK AO2 T00930000
KPEQ 181035Z AUTO 36004KT 10SM CLR 11/00 A3005 RMK AO2 T01050002
KPEQ 181015Z AUTO 02004KT 10SM CLR 11/01 A3005 RMK AO2 T01060005
KPEQ 180955Z AUTO 02004KT 10SM CLR 11/01 A3006 RMK AO2 T01060005
KPEQ 180935Z AUTO 05005KT 10SM CLR 10/00 A3007 RMK AO2 T01040002
KPEQ 180915Z AUTO 06005KT 10SM CLR 10/00 A3007 RMK AO2 T01030000
KPEQ 180855Z AUTO 07004KT 10SM CLR 10/00 A3009 RMK AO2 T01030000
KPEQ 180835Z AUTO 06004KT 10SM CLR 10/00 A3009 RMK AO2 T01010000
KPEQ 180815Z AUTO 06003KT 10SM CLR 10/00 A3010 RMK AO2 T01001001
KPEQ 180755Z AUTO 08004KT 10SM CLR 10/00 A3011 RMK AO2 T01040000
KPEQ 180735Z AUTO 05003KT 10SM CLR 11/00 A3012 RMK AO2 T01110003
KPEQ 180715Z AUTO 05003KT 10SM CLR 12/00 A3012 RMK AO2 T01150000
KPEQ 180655Z AUTO 10004KT 10SM CLR 12/00 A3012 RMK AO2 T01170000
KPEQ 180635Z AUTO 09004KT 10SM CLR 12/00 A3013 RMK AO2 T01200000
KPEQ 180615Z AUTO 09007KT 10SM CLR 12/00 A3013 RMK AO2 T01230000
KPEQ 180555Z AUTO 09008KT 10SM CLR 13/00 A3014 RMK AO2 T01280002 10186 20127 402020050
KPEQ 180535Z AUTO 09011KT 10SM CLR 13/00 A3014 RMK AO2 T01320003
KPEQ 180515Z AUTO 08007KT 10SM CLR 13/02 A3015 RMK AO2 T01340015
KPEQ 180455Z AUTO 07008KT 10SM CLR 14/02 A3015 RMK AO2 T01350017
KPEQ 180435Z AUTO 04007KT 10SM CLR 14/03 A3014 RMK AO2 T01370029
KPEQ 180415Z AUTO 03006KT 10SM CLR 13/04 A3014 RMK AO2 T01290035
KPEQ 180355Z AUTO 00000KT 10SM CLR 13/03 A3014 RMK AO2 T01300026
KPEQ 180335Z AUTO 00000KT 10SM CLR 14/03 A3014 RMK AO2 T01370031
KPEQ 180315Z AUTO 00000KT 10SM CLR 14/03 A3015 RMK AO2 T01370026
KPEQ 180255Z AUTO 00000KT 10SM CLR 14/02 A3015 RMK AO2 T01360023
KPEQ 180235Z AUTO 00000KT 10SM CLR 14/03 A3016 RMK AO2 T01440026
KPEQ 180215Z AUTO 00000KT 10SM CLR 15/02 A3015 RMK AO2 T01480023
KPEQ 180155Z AUTO 00000KT 10SM CLR 15/02 A3014 RMK AO2 T01500024
KPEQ 180135Z AUTO 00000KT 10SM CLR 15/03 A3013 RMK AO2 T01510026
KPEQ 180115Z AUTO 00000KT 10SM CLR 17/03 A3013 RMK AO2 T01660030
KPEQ 180055Z AUTO 31003KT 10SM CLR 16/03 A3012 RMK AO2 T01640026
KPEQ 180035Z AUTO 33004KT 10SM CLR 18/03 A3012 RMK AO2 T01750030
KPEQ 180015Z AUTO 36005KT 10SM CLR 18/03 A3011 RMK AO2 T01830029
KPEQ 172355Z AUTO 36008KT 10SM CLR 19/03 A3011 RMK AO2 T01880031 10202 20185
KPEQ 172335Z AUTO 35006KT 10SM CLR 19/02 A3011 RMK AO2 T01900019
KPEQ 172315Z AUTO 36004KT 10SM CLR 19/03 A3011 RMK AO2 T01930030
KPEQ 172255Z AUTO 33006KT 10SM CLR 20/03 A3011 RMK AO2 T01950034
KPEQ 172235Z AUTO 32006KT 10SM CLR 20/04 A3012 RMK AO2 T01960039
KPEQ 172215Z AUTO 34006KT 10SM CLR 19/05 A3012 RMK AO2 T01930047
KPEQ 172155Z AUTO 34007KT 10SM CLR 20/05 A3011 RMK AO2 T01980049
KPEQ 172135Z AUTO 27003KT 10SM CLR 20/05 A3012 RMK AO2 T01970046
KPEQ 172115Z AUTO 27005KT 10SM CLR 20/05 A3012 RMK AO2 T02000050
KPEQ 172055Z AUTO 27004KT 10SM CLR 19/05 A3013 RMK AO2 T01930050
KPEQ 172035Z AUTO 29003KT 10SM CLR 19/05 A3013 RMK AO2 T01940049
KPEQ 172015Z AUTO 28007KT 10SM CLR 19/05 A3014 RMK AO2 T01930053
KPEQ 171955Z AUTO 31007KT 300V360 10SM CLR 20/05 A3015 RMK AO2 T01990054
KPEQ 171935Z AUTO 34008KT 10SM CLR 20/06 A3016 RMK AO2 T02010058
KPEQ 171915Z AUTO 34011G16KT 10SM CLR 20/06 A3017 RMK AO2 T01970056
KPEQ 171855Z AUTO 33011KT 10SM CLR 19/06 A3017 RMK AO2 T01910062
KPEQ 171835Z AUTO 35012KT 10SM CLR 19/07 A3018 RMK AO2 T01880069
KPEQ 171815Z AUTO 32011KT 10SM CLR 19/07 A3017 RMK AO2 T01880066
KPEQ 171755Z AUTO 31009G15KT 10SM CLR 18/07 A3017 RMK AO2 T01830073 10183 20050
KPEQ 171735Z AUTO 31010KT 10SM CLR 18/07 A3017 RMK AO2 T01800073
KPEQ 171715Z AUTO 28006KT 10SM CLR 18/07 A3016 RMK AO2 T01750069
KPEQ 171655Z AUTO 26004KT 10SM CLR 16/06 A3016 RMK AO2 T01630062
KPEQ 171635Z AUTO 26010KT 10SM CLR 17/06 A3014 RMK AO2 T01650058
KPEQ 171615Z AUTO 27009KT 10SM CLR 15/05 A3014 RMK AO2 T01540046
KPEQ 171555Z AUTO 00000KT 10SM CLR 14/04 A3013 RMK AO2 T01390035
KPEQ 171535Z AUTO 00000KT 10SM CLR 12/02 A3012 RMK AO2 T01220016
KPEQ 171515Z AUTO 17004KT 10SM CLR 11/01 A3011 RMK AO2 T01100011
KPEQ 171455Z AUTO 00000KT 10SM CLR 09/02 A3012 RMK AO2 T00910021
KPEQ 171435Z AUTO 21003KT 10SM CLR 08/02 A3011 RMK AO2 T00840024
KPEQ 171415Z AUTO 00000KT 10SM CLR 06/02 A3012 RMK AO2 T00630020
KPEQ 171355Z AUTO 00000KT 10SM CLR 05/02 A3011 RMK AO2 T00530016
KPEQ 171335Z AUTO 00000KT 10SM CLR 05/02 A3011 RMK AO2 T00500017
KPEQ 171315Z AUTO 00000KT 10SM CLR 05/02 A3010 RMK AO2 T00540017
KPEQ 171255Z AUTO 00000KT 10SM CLR 06/02 A3010 RMK AO2 T00560021
KPEQ 171235Z AUTO 29004KT 10SM CLR 06/02 A3011 RMK AO2 T00550019
KPEQ 171215Z AUTO 30003KT 10SM CLR 05/02 A3011 RMK AO2 T00530015
KPEQ 171155Z AUTO 00000KT 10SM CLR 06/02 A3010 RMK AO2 T00570020 10103 20057